createdAt,value
2023-10-16T00:00:53.906Z,1.60
2023-10-16T00:14:53.696Z,1.50
2023-10-16T00:28:53.742Z,1.70
2023-10-16T00:42:53.448Z,1.70
2023-10-16T00:56:53.224Z,2.00
2023-10-16T01:10:53.232Z,1.80
2023-10-16T01:24:53.744Z,2.10
2023-10-16T01:38:52.835Z,2.00
2023-10-16T01:52:52.677Z,2.10
2023-10-16T02:06:52.622Z,2.30
2023-10-16T02:20:53.629Z,2.50
2023-10-16T02:34:52.255Z,2.70
2023-10-16T02:48:52.078Z,2.30
2023-10-16T03:02:51.963Z,2.00
2023-10-16T03:16:51.778Z,2.50
2023-10-16T03:30:51.648Z,2.40
2023-10-16T03:44:51.501Z,2.60
2023-10-16T03:58:51.335Z,2.40
2023-10-16T04:12:51.189Z,2.30
2023-10-16T04:26:51.009Z,2.90
2023-10-16T04:40:50.805Z,2.60
2023-10-16T04:54:50.659Z,2.70
2023-10-16T05:08:50.498Z,3.30
2023-10-16T05:22:50.416Z,2.90
2023-10-16T05:36:50.200Z,3.40
2023-10-16T05:50:49.992Z,3.80
2023-10-16T06:04:50.017Z,3.70
2023-10-16T06:18:49.824Z,4.50
2023-10-16T06:32:49.614Z,4.20
2023-10-16T06:46:49.465Z,4.20
2023-10-16T07:00:49.304Z,3.70
2023-10-16T07:14:49.200Z,4.30
2023-10-16T07:28:49.016Z,3.90
2023-10-16T07:42:48.859Z,3.40
2023-10-16T07:56:48.648Z,3.70
2023-10-16T08:10:48.576Z,3.50
2023-10-16T08:24:48.482Z,3.40
2023-10-16T08:38:50.748Z,3.80
2023-10-16T08:52:48.117Z,3.80
2023-10-16T09:06:48.102Z,3.60
2023-10-16T09:20:47.801Z,3.20
2023-10-16T09:48:47.532Z,3.00
2023-10-16T10:02:48.482Z,3.10
2023-10-16T10:16:47.253Z,2.70
2023-10-16T10:30:47.175Z,2.20
2023-10-16T10:44:46.924Z,2.60
2023-10-16T10:58:46.772Z,2.40
2023-10-16T11:12:46.647Z,2.40
2023-10-16T11:26:46.470Z,1.90
2023-10-16T11:40:46.316Z,1.90
2023-10-16T11:54:46.271Z,1.50
2023-10-16T12:08:46.019Z,1.30
2023-10-16T12:22:45.885Z,1.20
2023-10-16T12:36:45.772Z,1.30
2023-10-16T12:50:55.678Z,1.70
2023-10-16T13:04:45.531Z,1.20
2023-10-16T13:18:45.281Z,2.00
2023-10-16T13:32:45.159Z,1.30
2023-10-16T13:46:44.980Z,1.70
2023-10-16T14:00:44.874Z,1.70
2023-10-16T14:14:44.707Z,2.00
2023-10-16T14:28:44.544Z,2.60
2023-10-16T14:42:44.411Z,2.20
2023-10-16T14:56:44.287Z,1.80
2023-10-16T16:29:03.654Z,3.30
2023-10-16T16:43:03.465Z,2.30
2023-10-16T16:57:03.405Z,2.30
2023-10-16T17:11:03.325Z,2.40
2023-10-16T17:39:03.529Z,2.20
2023-10-16T18:07:02.637Z,3.10
2023-10-16T18:35:02.366Z,4.20
2023-10-16T19:03:02.116Z,3.80
2023-10-16T19:31:01.766Z,2.90
2023-10-16T19:59:01.475Z,5.30
2023-10-16T20:27:01.174Z,4.50
2023-10-16T20:55:01.085Z,3.00
2023-10-16T21:23:00.619Z,6.10
2023-10-16T21:51:00.288Z,4.70
2023-10-16T22:19:00.043Z,3.80
2023-10-16T22:46:59.740Z,3.80
2023-10-16T23:14:59.429Z,3.50
2023-10-16T23:42:59.158Z,3.90
